Terminal Aerodrome Forecast
Issued by NWS Blacksburg, VA

Home | Current Version | Previous Version | Text Only | Print | Product List | Glossary On
Versions: 1 2 3 4 5 6 7 8 9 10 11 12 13 14 15 16 17 18 19 20 21 22 23
000
FTUS41 KRNK 261724
TAFLYH
TAF
KLYH 261724Z 2618/2718 26007KT P6SM SCT045
     FM261900 23006KT P6SM VCTS BKN050CB
     FM270100 00000KT P6SM -SHRA BKN045 OVC100
     FM271400 36003KT P6SM SCT100=

USA.gov is the U.S. government's official web portal to all federal, state and local government web resources and services.